Time;durP1;ratioP1;P1;durP2;ratioP2;P2;SDS_P1;SDS_P2;PMS_P1;PMS_P2;Temp;Humidity;BMP_temperature;BMP_pressure;BME280_temperature;BME280_humidity;BME280_pressure;Samples;Min_cycle;Max_cycle;Signal;HPM_P1;HPM_P2
2022/02/01 00:02:21;;;;;;;0.30;0.20;;;2.40;99.90;;;;;;5013550;28;20431;-81
2022/02/01 00:04:58;;;;;;;0.30;0.30;;;2.40;99.90;;;;;;5013324;28;20450;-80
2022/02/01 00:07:37;;;;;;;0.30;0.20;;;2.30;99.90;;;;;;5013266;28;20435;-80
2022/02/01 00:10:12;;;;;;;0.30;0.20;;;2.30;99.90;;;;;;5013238;28;20428;-80
2022/02/01 00:12:55;;;;;;;0.30;0.30;;;2.30;99.90;;;;;;5013101;28;20466;-80
2022/02/01 00:18:38;;;;;;;0.30;0.30;;;2.30;99.90;;;;;;4971878;28;20440;-80
2022/02/01 00:35:17;;;;;;;0.30;0.20;;;2.20;99.90;;;;;;5016474;28;20461;-78
2022/02/01 00:37:56;;;;;;;0.30;0.20;;;2.20;99.90;;;;;;5016207;28;20531;-78
2022/02/01 00:40:25;;;;;;;1.17;1.07;;;2.20;99.90;;;;;;5017143;28;20521;-81
2022/02/01 00:42:51;;;;;;;0.30;0.30;;;2.20;99.90;;;;;;5015907;28;21009;-81
2022/02/01 00:45:18;;;;;;;0.40;0.40;;;2.10;99.90;;;;;;5016263;28;20474;-81
2022/02/01 00:47:45;;;;;;;0.30;0.30;;;2.20;99.90;;;;;;5016288;28;20454;-81
2022/02/01 00:50:15;;;;;;;0.30;0.20;;;2.10;99.90;;;;;;5015914;28;20943;-81
2022/02/01 00:52:42;;;;;;;0.30;0.30;;;2.10;99.90;;;;;;5015805;28;20574;-82
2022/02/01 00:55:09;;;;;;;0.30;0.30;;;2.10;99.90;;;;;;5016073;28;20448;-80
2022/02/01 00:57:37;;;;;;;0.30;0.20;;;2.10;99.90;;;;;;5016516;28;20454;-80
2022/02/01 01:00:07;;;;;;;0.30;0.30;;;2.10;99.90;;;;;;5016091;28;20961;-81
2022/02/01 01:02:34;;;;;;;0.30;0.30;;;2.00;99.90;;;;;;5016798;28;20451;-81
2022/02/01 01:05:01;;;;;;;0.30;0.27;;;2.00;99.90;;;;;;5015859;28;20459;-81
2022/02/01 01:07:28;;;;;;;0.30;0.30;;;2.10;99.90;;;;;;5015593;28;20451;-81
2022/02/01 01:09:55;;;;;;;0.30;0.30;;;2.00;99.90;;;;;;5015868;28;20447;-81
2022/02/01 01:12:23;;;;;;;0.30;0.30;;;2.10;99.90;;;;;;5015753;28;20479;-82
2022/02/01 01:45:28;;;;;;;0.30;0.30;;;2.20;99.90;;;;;;5014943;28;21022;-78
2022/02/01 01:53:24;;;;;;;0.30;0.20;;;2.30;99.90;;;;;;5015075;28;20482;-78
2022/02/01 01:55:53;;;;;;;0.30;0.30;;;2.30;99.90;;;;;;5014639;28;21028;-79
2022/02/01 01:58:21;;;;;;;0.30;0.20;;;2.30;99.90;;;;;;5014710;28;20438;-79
2022/02/01 02:01:11;;;;;;;0.30;0.30;;;2.30;99.90;;;;;;5014642;28;20440;-79
2022/02/01 02:03:40;;;;;;;0.30;0.20;;;2.30;99.90;;;;;;5015095;28;20531;-79
2022/02/01 02:06:06;;;;;;;0.30;0.27;;;2.40;99.90;;;;;;5014435;28;20471;-79
2022/02/01 02:08:33;;;;;;;0.30;0.30;;;2.30;99.90;;;;;;5014471;28;20447;-79
2022/02/01 02:11:03;;;;;;;0.30;0.20;;;2.30;99.90;;;;;;5014717;28;20459;-79
2022/02/01 02:16:18;;;;;;;0.70;0.70;;;2.20;99.90;;;;;;5014501;28;20599;-79
2022/02/01 02:18:46;;;;;;;0.30;0.30;;;2.20;99.90;;;;;;5014310;28;20439;-79
2022/02/01 02:21:17;;;;;;;0.30;0.30;;;2.20;99.90;;;;;;5014188;28;20955;-79
2022/02/01 02:23:44;;;;;;;0.30;0.30;;;2.30;99.90;;;;;;5014788;28;20448;-79
2022/02/01 02:26:13;;;;;;;0.30;0.30;;;2.20;99.90;;;;;;5014366;28;20471;-79
2022/02/01 02:28:40;;;;;;;0.30;0.23;;;2.20;99.90;;;;;;5014399;28;20448;-79
2022/02/01 02:31:08;;;;;;;0.30;0.30;;;2.30;99.90;;;;;;5014367;28;20878;-79
2022/02/01 02:33:35;;;;;;;0.30;0.20;;;2.30;99.90;;;;;;5014282;28;20490;-79
2022/02/01 02:36:06;;;;;;;0.30;0.20;;;2.30;99.90;;;;;;5014149;28;20471;-79
2022/02/01 02:38:40;;;;;;;0.30;0.30;;;2.30;99.90;;;;;;5014133;28;20828;-79
2022/02/01 02:46:37;;;;;;;0.30;0.20;;;2.30;99.90;;;;;;5013829;28;20462;-79
2022/02/01 02:49:06;;;;;;;0.30;0.20;;;2.20;99.90;;;;;;5014010;28;20448;-79
2022/02/01 02:51:33;;;;;;;0.30;0.30;;;2.20;99.90;;;;;;5013667;28;20939;-78
2022/02/01 02:54:03;;;;;;;0.30;0.30;;;2.20;99.90;;;;;;5013617;28;20486;-78
2022/02/01 02:56:30;;;;;;;0.30;0.20;;;2.20;99.90;;;;;;5013874;28;20476;-79
2022/02/01 02:58:57;;;;;;;1.80;1.80;;;2.20;99.90;;;;;;5013863;28;20455;-79
2022/02/01 03:01:24;;;;;;;0.30;0.20;;;2.10;99.90;;;;;;5013859;28;20474;-79
2022/02/01 03:03:50;;;;;;;0.30;0.30;;;2.10;99.90;;;;;;5013804;28;20452;-79
2022/02/01 03:06:17;;;;;;;0.30;0.20;;;2.10;99.90;;;;;;5013661;28;20467;-79
2022/02/01 03:08:44;;;;;;;0.30;0.20;;;2.00;99.90;;;;;;5013859;28;20443;-79
2022/02/01 03:11:14;;;;;;;0.30;0.30;;;2.10;99.90;;;;;;5013828;28;20447;-79
2022/02/01 03:13:46;;;;;;;0.30;0.30;;;2.00;99.90;;;;;;5013409;28;21001;-79
2022/02/01 03:16:33;;;;;;;0.30;0.20;;;2.00;99.90;;;;;;5013635;28;20479;-79
2022/02/01 03:21:44;;;;;;;0.30;0.30;;;2.00;99.90;;;;;;5013403;28;20408;-79
2022/02/01 03:24:11;;;;;;;0.30;0.20;;;2.10;99.90;;;;;;5013566;28;20481;-79
2022/02/01 03:26:39;;;;;;;0.30;0.20;;;2.00;99.90;;;;;;5013469;28;20476;-79
2022/02/01 03:29:06;;;;;;;0.77;0.77;;;2.10;99.90;;;;;;5013276;28;20944;-79
2022/02/01 03:31:32;;;;;;;0.30;0.30;;;2.00;99.90;;;;;;5013599;28;20444;-81
2022/02/01 03:33:59;;;;;;;0.30;0.20;;;2.10;99.90;;;;;;5013418;28;20494;-81
2022/02/01 03:36:26;;;;;;;0.30;0.20;;;2.10;99.90;;;;;;5013202;28;20462;-82
2022/02/01 03:38:52;;;;;;;0.30;0.20;;;2.10;99.90;;;;;;5013479;28;20458;-81
2022/02/01 03:41:20;;;;;;;0.30;0.30;;;2.00;99.90;;;;;;5013163;28;20483;-81
2022/02/01 03:43:48;;;;;;;0.30;0.20;;;2.00;99.90;;;;;;5013132;28;20490;-81
2022/02/01 03:46:15;;;;;;;0.30;0.30;;;2.00;99.90;;;;;;5013353;28;20455;-82
2022/02/01 03:48:42;;;;;;;0.30;0.20;;;2.00;99.90;;;;;;5013445;28;20444;-82
2022/02/01 03:51:09;;;;;;;0.30;0.20;;;2.00;99.90;;;;;;5013112;28;20958;-81
2022/02/01 03:53:36;;;;;;;0.30;0.30;;;2.00;99.90;;;;;;5013009;28;20480;-81
2022/02/01 03:56:03;;;;;;;0.30;0.20;;;2.10;99.90;;;;;;5016730;28;20508;-81
2022/02/01 03:58:30;;;;;;;0.30;0.20;;;2.00;99.90;;;;;;5016819;28;20825;-81
2022/02/01 04:00:58;;;;;;;0.30;0.27;;;2.00;99.90;;;;;;5017088;28;20459;-81
2022/02/01 04:03:25;;;;;;;0.30;0.30;;;2.00;99.90;;;;;;5016841;28;20436;-81
2022/02/01 04:05:52;;;;;;;0.30;0.20;;;2.00;99.90;;;;;;5017044;28;20463;-81
2022/02/01 04:08:19;;;;;;;0.40;0.40;;;2.00;99.90;;;;;;5016710;28;20947;-82
2022/02/01 04:10:48;;;;;;;0.30;0.30;;;2.00;99.90;;;;;;5016883;28;20550;-81
2022/02/01 04:13:16;;;;;;;0.30;0.20;;;2.00;99.90;;;;;;5016547;28;20490;-81
2022/02/01 04:15:43;;;;;;;0.30;0.30;;;2.00;99.90;;;;;;5016573;28;20459;-81
2022/02/01 04:18:11;;;;;;;0.30;0.20;;;2.00;99.90;;;;;;5017034;28;20528;-81
2022/02/01 04:20:38;;;;;;;0.30;0.30;;;2.00;99.90;;;;;;5016740;28;20537;-81
2022/02/01 04:23:06;;;;;;;0.30;0.20;;;2.00;99.90;;;;;;5016698;28;20439;-82
2022/02/01 04:25:33;;;;;;;0.30;0.20;;;2.00;99.90;;;;;;5016617;28;20475;-81
2022/02/01 04:27:59;;;;;;;0.30;0.30;;;2.00;99.90;;;;;;5016646;28;20821;-81
2022/02/01 04:30:26;;;;;;;0.30;0.20;;;2.00;99.90;;;;;;5016394;28;20447;-81
2022/02/01 04:32:55;;;;;;;0.30;0.30;;;2.00;99.90;;;;;;5016513;28;20447;-81
2022/02/01 04:35:25;;;;;;;0.30;0.30;;;2.00;99.90;;;;;;5016145;28;20463;-81
2022/02/01 04:37:54;;;;;;;0.30;0.30;;;2.00;99.90;;;;;;5016148;28;20947;-82
2022/02/01 04:40:22;;;;;;;0.30;0.30;;;2.00;99.90;;;;;;5016357;28;20451;-81
2022/02/01 04:42:49;;;;;;;0.30;0.20;;;2.00;99.90;;;;;;5015916;28;20494;-81
2022/02/01 04:45:18;;;;;;;0.30;0.30;;;2.00;99.90;;;;;;5016271;28;20475;-82
2022/02/01 04:47:46;;;;;;;0.30;0.30;;;2.00;99.90;;;;;;5016000;28;20491;-82
2022/02/01 04:50:15;;;;;;;0.30;0.30;;;2.00;99.90;;;;;;5015968;28;20451;-82
2022/02/01 04:52:46;;;;;;;0.30;0.30;;;1.90;99.90;;;;;;5015922;28;20456;-82
2022/02/01 04:55:13;;;;;;;3.70;0.70;;;1.90;99.90;;;;;;5016031;28;20476;-82
2022/02/01 04:57:52;;;;;;;0.30;0.20;;;1.80;99.90;;;;;;5015932;28;20436;-82
2022/02/01 05:00:18;;;;;;;0.30;0.30;;;1.80;99.90;;;;;;5015806;28;20941;-82
2022/02/01 05:02:45;;;;;;;0.30;0.20;;;1.90;99.90;;;;;;5015759;28;20443;-78
2022/02/01 05:05:12;;;;;;;0.30;0.30;;;1.90;99.90;;;;;;5015486;28;20455;-78
2022/02/01 05:07:38;;;;;;;0.30;0.20;;;1.90;99.90;;;;;;5015690;28;20442;-78
2022/02/01 05:10:08;;;;;;;0.30;0.30;;;1.90;99.90;;;;;;5015891;28;20459;-78
2022/02/01 05:12:37;;;;;;;0.30;0.30;;;1.80;99.90;;;;;;5015808;28;20439;-78
2022/02/01 05:15:07;;;;;;;0.30;0.20;;;1.80;99.90;;;;;;5015371;28;21025;-78
2022/02/01 05:17:37;;;;;;;0.30;0.30;;;1.70;99.90;;;;;;5016466;28;20731;-78
2022/02/01 05:20:16;;;;;;;0.30;0.20;;;1.70;99.90;;;;;;5015426;28;20526;-78
2022/02/01 05:22:45;;;;;;;0.30;0.30;;;1.80;99.90;;;;;;5015622;28;20505;-78
2022/02/01 05:25:14;;;;;;;0.30;0.20;;;1.70;99.90;;;;;;5015197;28;20451;-78
2022/02/01 05:27:40;;;;;;;0.30;0.30;;;1.60;99.90;;;;;;5015505;28;20462;-78
2022/02/01 05:30:09;;;;;;;0.30;0.30;;;1.60;99.90;;;;;;5015503;28;20451;-78
2022/02/01 05:32:36;;;;;;;0.30;0.30;;;1.70;99.90;;;;;;5015451;28;20447;-78
2022/02/01 05:35:05;;;;;;;0.30;0.20;;;1.70;99.90;;;;;;5015290;28;20506;-78
2022/02/01 05:37:32;;;;;;;0.30;0.20;;;1.70;99.90;;;;;;5015350;28;20459;-78
2022/02/01 05:39:59;;;;;;;0.30;0.20;;;1.70;99.90;;;;;;5015211;28;20505;-78
2022/02/01 05:42:39;;;;;;;0.30;0.20;;;1.80;99.90;;;;;;5014906;28;20571;-78
2022/02/01 05:45:07;;;;;;;0.30;0.30;;;1.80;99.90;;;;;;5014895;28;20966;-80
2022/02/01 05:47:33;;;;;;;0.30;0.20;;;1.80;99.90;;;;;;5014889;28;20447;-80
2022/02/01 05:50:00;;;;;;;0.30;0.30;;;1.80;99.90;;;;;;5014852;28;20957;-80
2022/02/01 05:52:27;;;;;;;0.30;0.20;;;1.80;99.90;;;;;;5014798;28;20447;-80
2022/02/01 05:54:54;;;;;;;0.30;0.30;;;1.80;99.90;;;;;;5014699;28;20479;-80
2022/02/01 05:57:21;;;;;;;0.30;0.30;;;1.70;99.90;;;;;;5014665;28;20466;-80
2022/02/01 05:59:50;;;;;;;0.30;0.30;;;1.70;99.90;;;;;;5014963;28;20491;-80
2022/02/01 06:02:18;;;;;;;0.30;0.30;;;1.70;99.90;;;;;;5014661;28;20440;-80
2022/02/01 06:04:45;;;;;;;0.30;0.30;;;1.70;99.90;;;;;;5014800;28;20454;-80
2022/02/01 06:07:12;;;;;;;0.30;0.30;;;1.70;99.90;;;;;;5014424;28;21014;-80
2022/02/01 06:09:38;;;;;;;0.30;0.20;;;1.70;99.90;;;;;;5014752;28;20459;-80
2022/02/01 06:12:06;;;;;;;0.30;0.30;;;1.60;99.90;;;;;;5014703;28;20468;-81
2022/02/01 06:14:33;;;;;;;0.30;0.30;;;1.60;99.90;;;;;;5014591;28;20874;-81
2022/02/01 06:17:01;;;;;;;0.30;0.27;;;1.60;99.90;;;;;;5013562;28;20842;-80
2022/02/01 06:19:28;;;;;;;0.30;0.30;;;1.60;99.90;;;;;;5014261;28;20448;-81
2022/02/01 06:21:54;;;;;;;0.30;0.20;;;1.60;99.90;;;;;;5014511;28;20458;-81
2022/02/01 06:24:22;;;;;;;0.30;0.20;;;1.60;99.90;;;;;;5014515;28;20443;-81
2022/02/01 06:26:49;;;;;;;0.30;0.30;;;1.50;99.90;;;;;;5014418;28;20679;-81
2022/02/01 06:29:15;;;;;;;0.30;0.30;;;1.50;99.90;;;;;;5014419;28;20451;-81
2022/02/01 06:31:42;;;;;;;0.30;0.30;;;1.50;99.90;;;;;;5014138;28;20431;-81
2022/02/01 06:34:10;;;;;;;0.30;0.30;;;1.50;99.90;;;;;;5013961;28;20491;-81
2022/02/01 06:36:37;;;;;;;0.30;0.20;;;1.50;99.90;;;;;;5014237;28;20475;-81
2022/02/01 06:39:04;;;;;;;1.23;0.43;;;1.40;99.90;;;;;;5014212;28;20451;-81
2022/02/01 06:41:32;;;;;;;0.30;0.20;;;1.40;99.90;;;;;;5013716;28;20475;-81
2022/02/01 06:43:59;;;;;;;0.30;0.20;;;1.40;99.90;;;;;;5013909;28;20448;-81
2022/02/01 06:46:27;;;;;;;0.30;0.20;;;1.40;99.90;;;;;;5014071;28;20471;-81
2022/02/01 06:48:54;;;;;;;0.30;0.30;;;1.40;99.90;;;;;;5014481;28;20451;-81
2022/02/01 06:51:23;;;;;;;0.30;0.30;;;1.40;99.90;;;;;;5013793;28;20946;-81
2022/02/01 06:53:51;;;;;;;0.30;0.30;;;1.40;99.90;;;;;;5013891;28;20448;-81
2022/02/01 06:56:22;;;;;;;0.30;0.30;;;1.40;99.90;;;;;;5013866;28;20474;-81
2022/02/01 06:58:49;;;;;;;0.30;0.30;;;1.40;99.90;;;;;;5013944;28;20535;-81
2022/02/01 07:01:16;;;;;;;0.30;0.20;;;1.40;99.90;;;;;;5013620;28;20965;-80
2022/02/01 07:03:42;;;;;;;0.30;0.20;;;1.40;99.90;;;;;;5013524;28;20455;-81
2022/02/01 07:06:12;;;;;;;0.30;0.30;;;1.40;99.90;;;;;;5013715;28;20467;-81
2022/02/01 07:08:43;;;;;;;0.30;0.30;;;1.50;99.90;;;;;;5014120;28;20905;-81
2022/02/01 07:11:10;;;;;;;0.30;0.30;;;1.50;99.90;;;;;;5013432;28;20875;-81
2022/02/01 07:13:38;;;;;;;0.30;0.20;;;1.50;99.90;;;;;;5013774;28;20454;-81
2022/02/01 07:16:05;;;;;;;0.30;0.20;;;1.60;99.90;;;;;;5013605;28;20498;-79
2022/02/01 07:18:32;;;;;;;0.30;0.30;;;1.60;99.90;;;;;;5013681;28;20448;-79
2022/02/01 07:20:59;;;;;;;0.30;0.20;;;1.50;99.90;;;;;;5013687;28;20455;-79
2022/02/01 07:23:27;;;;;;;0.30;0.30;;;1.50;99.90;;;;;;5013687;28;20459;-79
2022/02/01 07:25:57;;;;;;;0.30;0.20;;;1.50;99.90;;;;;;5013555;28;20478;-79
2022/02/01 07:28:26;;;;;;;0.30;0.20;;;1.60;99.90;;;;;;5016047;28;20514;-79
2022/02/01 07:30:53;;;;;;;0.30;0.20;;;1.60;99.90;;;;;;5019837;28;20953;-80
2022/02/01 07:33:20;;;;;;;0.30;0.30;;;1.60;99.90;;;;;;5020176;28;20481;-80
2022/02/01 07:35:48;;;;;;;0.97;0.97;;;1.60;99.90;;;;;;5019936;28;20495;-80
2022/02/01 07:38:18;;;;;;;0.30;0.20;;;1.70;99.90;;;;;;5020057;28;20459;-80
2022/02/01 07:40:45;;;;;;;0.77;0.50;;;1.70;99.90;;;;;;5019875;28;20444;-80
2022/02/01 07:43:14;;;;;;;0.30;0.30;;;1.70;99.90;;;;;;5020376;28;20450;-80
2022/02/01 07:45:42;;;;;;;0.30;0.30;;;1.70;99.90;;;;;;5020181;28;20464;-81
2022/02/01 07:48:09;;;;;;;0.30;0.30;;;1.70;99.90;;;;;;5019995;28;20451;-80
2022/02/01 07:50:36;;;;;;;0.30;0.20;;;1.80;99.90;;;;;;5019973;28;20454;-80
2022/02/01 07:53:04;;;;;;;0.30;0.20;;;1.80;99.90;;;;;;5019661;28;21065;-80
2022/02/01 07:55:31;;;;;;;0.30;0.20;;;1.90;99.90;;;;;;5019765;28;20517;-80
2022/02/01 07:57:58;;;;;;;0.30;0.30;;;2.00;99.90;;;;;;5019762;28;20794;-80
2022/02/01 08:00:27;;;;;;;0.30;0.30;;;2.00;99.90;;;;;;5019693;28;20793;-81
2022/02/01 08:02:55;;;;;;;0.30;0.30;;;2.10;99.90;;;;;;5019878;28;20440;-80
2022/02/01 08:05:24;;;;;;;0.30;0.30;;;2.20;99.90;;;;;;5019593;28;20452;-80
2022/02/01 08:07:51;;;;;;;0.30;0.20;;;2.30;99.90;;;;;;5019850;28;20450;-80
2022/02/01 08:10:18;;;;;;;0.30;0.20;;;2.30;99.90;;;;;;5019571;28;20431;-80
2022/02/01 08:18:27;;;;;;;0.30;0.30;;;2.50;99.90;;;;;;5019775;28;20986;-80
2022/02/01 08:20:57;;;;;;;0.30;0.30;;;2.50;99.90;;;;;;5019697;28;20432;-81
2022/02/01 08:23:24;;;;;;;0.30;0.20;;;2.60;99.90;;;;;;5019647;28;20486;-80
2022/02/01 08:25:52;;;;;;;0.60;0.60;;;2.60;99.90;;;;;;5019536;28;20459;-80
2022/02/01 08:28:19;;;;;;;0.30;0.30;;;2.70;99.90;;;;;;5019666;28;20416;-80
2022/02/01 08:30:50;;;;;;;0.30;0.30;;;2.70;99.90;;;;;;5019617;28;20535;-80
2022/02/01 08:33:16;;;;;;;0.30;0.20;;;2.80;99.90;;;;;;5019893;28;20493;-80
2022/02/01 08:35:43;;;;;;;0.30;0.20;;;2.90;99.90;;;;;;5019150;28;20986;-80
2022/02/01 08:38:10;;;;;;;0.30;0.20;;;3.00;99.90;;;;;;5019212;28;20460;-80
2022/02/01 08:40:37;;;;;;;0.30;0.30;;;3.00;99.90;;;;;;5016491;28;20926;-80
2022/02/01 08:43:03;;;;;;;0.30;0.30;;;3.00;99.90;;;;;;5016118;28;20447;-80
2022/02/01 08:45:30;;;;;;;0.30;0.20;;;3.10;99.90;;;;;;5016018;28;20467;-81
2022/02/01 08:47:59;;;;;;;0.30;0.20;;;3.20;99.90;;;;;;5016079;28;20452;-80
2022/02/01 08:50:31;;;;;;;0.30;0.20;;;3.20;99.90;;;;;;5015983;28;20454;-79
2022/02/01 08:53:09;;;;;;;0.30;0.30;;;3.30;99.90;;;;;;5015963;28;20436;-80
2022/02/01 08:55:39;;;;;;;0.30;0.27;;;3.50;99.90;;;;;;5016116;28;20486;-80
2022/02/01 08:58:07;;;;;;;0.30;0.30;;;3.60;99.90;;;;;;5016162;28;20439;-81
2022/02/01 09:00:35;;;;;;;0.30;0.30;;;3.70;99.90;;;;;;5016093;28;20452;-80
2022/02/01 09:03:05;;;;;;;0.30;0.30;;;3.70;99.90;;;;;;5016019;28;20459;-80
2022/02/01 09:05:32;;;;;;;0.30;0.20;;;3.80;99.90;;;;;;5015665;28;20479;-80
2022/02/01 09:08:01;;;;;;;0.30;0.20;;;3.80;99.90;;;;;;5015940;28;20834;-80
2022/02/01 09:10:28;;;;;;;0.30;0.30;;;3.80;99.90;;;;;;5015946;28;20810;-78
2022/02/01 09:12:55;;;;;;;0.30;0.20;;;3.90;99.90;;;;;;5015706;28;20421;-78
2022/02/01 09:15:22;;;;;;;0.30;0.20;;;3.90;99.90;;;;;;5015432;28;21004;-78
2022/02/01 09:17:48;;;;;;;0.30;0.30;;;3.80;99.90;;;;;;5015734;28;20962;-78
2022/02/01 09:20:17;;;;;;;0.30;0.20;;;3.80;99.90;;;;;;5015578;28;20451;-78
2022/02/01 09:22:43;;;;;;;0.30;0.20;;;3.80;99.90;;;;;;5015631;28;20448;-78
2022/02/01 09:25:12;;;;;;;0.30;0.20;;;3.80;99.90;;;;;;5015536;28;20440;-78
2022/02/01 09:27:39;;;;;;;0.30;0.30;;;3.70;99.90;;;;;;5015686;28;20798;-78
2022/02/01 09:30:07;;;;;;;0.50;0.33;;;3.70;99.90;;;;;;5015531;28;20452;-78
2022/02/01 09:32:34;;;;;;;0.30;0.20;;;3.70;99.90;;;;;;5015501;28;20436;-78
2022/02/01 09:35:01;;;;;;;0.30;0.20;;;3.60;99.90;;;;;;5015296;28;20491;-79
2022/02/01 09:37:29;;;;;;;0.30;0.20;;;3.50;99.90;;;;;;5015496;28;20818;-78
2022/02/01 09:39:55;;;;;;;0.30;0.20;;;3.60;99.90;;;;;;5015235;28;20819;-78
2022/02/01 09:42:27;;;;;;;0.30;0.30;;;3.60;99.90;;;;;;5014803;28;20490;-78
2022/02/01 09:44:54;;;;;;;0.30;0.30;;;3.60;99.90;;;;;;5014985;28;20431;-78
2022/02/01 09:47:31;;;;;;;0.30;0.30;;;3.80;99.90;;;;;;5014862;28;21015;-78
2022/02/01 09:49:58;;;;;;;0.30;0.20;;;3.80;99.90;;;;;;5015248;28;20435;-80
2022/02/01 09:52:25;;;;;;;0.30;0.30;;;3.80;99.90;;;;;;5013672;28;20911;-81
2022/02/01 09:54:54;;;;;;;0.30;0.30;;;3.90;99.90;;;;;;5014726;28;20994;-81
2022/02/01 09:57:21;;;;;;;0.30;0.20;;;4.20;99.90;;;;;;5014952;28;20501;-80
2022/02/01 09:59:54;;;;;;;0.30;0.30;;;4.40;99.90;;;;;;5015040;28;20531;-80
2022/02/01 10:02:22;;;;;;;0.30;0.30;;;4.40;99.90;;;;;;5014950;28;20580;-81
2022/02/01 10:04:50;;;;;;;0.30;0.30;;;4.40;99.90;;;;;;5014634;28;20958;-81
2022/02/01 10:07:18;;;;;;;0.30;0.20;;;4.50;99.90;;;;;;5014806;28;20503;-81
2022/02/01 10:09:53;;;;;;;0.30;0.20;;;4.50;99.90;;;;;;5014830;28;20431;-81
2022/02/01 10:12:21;;;;;;;0.30;0.20;;;4.40;99.90;;;;;;5014465;28;20911;-81
2022/02/01 10:14:55;;;;;;;1.27;1.17;;;4.60;99.90;;;;;;5014685;28;20478;-80
2022/02/01 10:17:29;;;;;;;0.30;0.20;;;4.50;99.90;;;;;;5014370;28;20983;-81
2022/02/01 10:19:56;;;;;;;3.50;0.50;;;4.70;99.90;;;;;;5014339;28;20445;-81
2022/02/01 10:22:32;;;;;;;0.30;0.20;;;5.00;99.90;;;;;;5014206;28;20440;-80
2022/02/01 10:25:02;;;;;;;0.30;0.20;;;5.10;99.90;;;;;;5014510;28;20446;-83
2022/02/01 10:27:31;;;;;;;0.30;0.20;;;5.20;99.90;;;;;;5014388;28;20494;-85
2022/02/01 10:30:04;;;;;;;0.30;0.30;;;5.40;99.90;;;;;;5014494;28;20444;-84
2022/02/01 10:32:43;;;;;;;1.07;0.40;;;5.60;99.90;;;;;;5015035;28;20472;-84
2022/02/01 10:35:22;;;;;;;0.30;0.30;;;5.90;99.90;;;;;;5014006;28;20482;-83
2022/02/01 10:37:57;;;;;;;0.30;0.20;;;6.00;99.90;;;;;;5014453;28;20522;-84
2022/02/01 10:40:35;;;;;;;0.60;0.30;;;5.90;99.90;;;;;;5015058;28;20838;-83
2022/02/01 10:43:04;;;;;;;0.30;0.20;;;5.70;99.90;;;;;;5014101;28;20423;-83
2022/02/01 10:45:32;;;;;;;0.30;0.30;;;5.40;99.90;;;;;;5013846;28;20471;-83
2022/02/01 10:47:59;;;;;;;0.30;0.20;;;5.20;99.90;;;;;;5013908;28;20434;-83
2022/02/01 10:50:28;;;;;;;0.30;0.30;;;4.90;99.90;;;;;;5013857;28;20991;-83
2022/02/01 10:52:55;;;;;;;0.30;0.20;;;4.90;99.90;;;;;;5013864;28;20884;-84
2022/02/01 10:55:23;;;;;;;0.50;0.50;;;4.80;99.90;;;;;;5013874;28;20479;-84
2022/02/01 10:57:51;;;;;;;0.30;0.20;;;4.80;99.90;;;;;;5014067;28;20439;-83
2022/02/01 11:00:19;;;;;;;0.30;0.20;;;4.90;99.90;;;;;;5014032;28;20443;-80
2022/02/01 11:02:48;;;;;;;0.30;0.30;;;4.90;99.90;;;;;;5013379;28;20436;-80
2022/02/01 11:05:17;;;;;;;0.30;0.20;;;5.10;99.90;;;;;;5013827;28;20432;-80
2022/02/01 11:07:43;;;;;;;0.30;0.20;;;5.30;99.90;;;;;;5013902;28;20443;-80
2022/02/01 11:10:11;;;;;;;0.30;0.20;;;5.30;99.90;;;;;;5013552;28;20431;-80
2022/02/01 11:12:39;;;;;;;0.30;0.20;;;5.20;99.90;;;;;;5013864;28;20447;-80
2022/02/01 11:15:18;;;;;;;0.30;0.20;;;5.10;99.90;;;;;;5013367;28;20811;-80
2022/02/01 11:17:47;;;;;;;0.30;0.20;;;4.90;99.90;;;;;;5014615;28;20454;-81
2022/02/01 11:20:14;;;;;;;0.30;0.20;;;4.90;99.90;;;;;;5013469;28;20535;-81
2022/02/01 11:22:43;;;;;;;0.30;0.20;;;4.80;99.90;;;;;;5013435;28;20443;-81
2022/02/01 11:25:20;;;;;;;0.30;0.20;;;4.50;99.90;;;;;;5013632;28;20547;-80
2022/02/01 11:28:00;;;;;;;0.30;0.20;;;4.50;99.90;;;;;;5013647;28;20436;-80
2022/02/01 11:30:36;;;;;;;0.30;0.30;;;4.40;99.90;;;;;;5013341;28;20439;-81
2022/02/01 11:33:04;;;;;;;0.30;0.30;;;4.40;99.90;;;;;;5013648;28;20431;-81
2022/02/01 11:35:31;;;;;;;0.30;0.30;;;4.50;99.90;;;;;;5013190;28;20488;-81
2022/02/01 11:38:02;;;;;;;0.30;0.30;;;4.50;99.90;;;;;;5013577;28;20440;-80
2022/02/01 11:40:35;;;;;;;0.40;0.40;;;4.50;99.90;;;;;;5013584;28;20455;-80
2022/02/01 11:43:06;;;;;;;0.30;0.20;;;4.50;99.90;;;;;;5013216;28;20424;-81
2022/02/01 11:45:37;;;;;;;0.30;0.20;;;4.40;99.90;;;;;;5014793;28;20452;-81
2022/02/01 11:48:16;;;;;;;0.30;0.20;;;4.40;99.90;;;;;;5013511;28;20478;-81
2022/02/01 11:50:48;;;;;;;0.30;0.20;;;4.30;99.90;;;;;;5013456;28;20482;-80
2022/02/01 11:53:24;;;;;;;0.30;0.20;;;4.20;99.90;;;;;;5013380;28;20447;-81
2022/02/01 11:55:53;;;;;;;0.30;0.20;;;4.30;99.90;;;;;;5013462;28;20906;-81
2022/02/01 11:58:31;;;;;;;0.30;0.20;;;4.20;99.90;;;;;;5013125;28;20935;-81
2022/02/01 12:01:00;;;;;;;0.30;0.20;;;4.20;99.90;;;;;;5013383;28;20796;-81
2022/02/01 12:03:31;;;;;;;0.30;0.30;;;4.00;99.90;;;;;;5013094;28;20463;-81
2022/02/01 12:06:05;;;;;;;0.30;0.20;;;4.00;99.90;;;;;;5012952;28;20506;-80
2022/02/01 12:08:33;;;;;;;0.30;0.30;;;4.00;99.90;;;;;;5012953;28;20938;-80
2022/02/01 12:11:02;;;;;;;0.30;0.30;;;4.00;99.90;;;;;;5013274;28;20494;-80
2022/02/01 12:13:30;;;;;;;0.30;0.30;;;4.00;99.90;;;;;;5012906;28;20459;-80
2022/02/01 12:16:02;;;;;;;0.30;0.20;;;4.00;99.90;;;;;;5014515;28;20506;-80
2022/02/01 12:18:33;;;;;;;0.30;0.30;;;4.00;99.90;;;;;;5016918;28;20435;-80
2022/02/01 12:21:26;;;;;;;0.30;0.20;;;4.00;99.90;;;;;;5016881;28;20436;-80
2022/02/01 12:23:55;;;;;;;0.30;0.20;;;4.00;99.90;;;;;;5014137;28;20451;-80
2022/02/01 12:26:25;;;;;;;0.30;0.20;;;4.00;99.90;;;;;;5016379;28;20843;-80
2022/02/01 12:28:54;;;;;;;0.30;0.20;;;4.00;99.90;;;;;;5016458;28;20443;-80
2022/02/01 12:31:24;;;;;;;0.30;0.30;;;4.00;99.90;;;;;;5016405;28;20447;-78
2022/02/01 12:33:54;;;;;;;0.30;0.30;;;4.00;99.90;;;;;;5016660;28;20451;-78
2022/02/01 12:36:26;;;;;;;0.30;0.20;;;4.00;99.90;;;;;;5016482;28;20487;-79
2022/02/01 12:39:00;;;;;;;0.30;0.30;;;4.00;99.90;;;;;;5016536;28;20469;-79
2022/02/01 12:41:31;;;;;;;0.30;0.30;;;3.90;99.90;;;;;;5016157;28;20582;-79
2022/02/01 12:46:50;;;;;;;0.30;0.30;;;4.00;99.90;;;;;;5016390;28;20817;-84
2022/02/01 12:49:18;;;;;;;0.30;0.30;;;4.00;99.90;;;;;;5016657;28;20562;-84
2022/02/01 12:51:46;;;;;;;0.30;0.20;;;4.00;99.90;;;;;;5016347;28;20440;-84
2022/02/01 12:54:24;;;;;;;0.30;0.30;;;4.00;99.90;;;;;;5016392;28;20436;-84
2022/02/01 12:56:51;;;;;;;0.30;0.30;;;4.00;99.90;;;;;;5016051;28;20493;-84
2022/02/01 12:59:21;;;;;;;0.30;0.20;;;4.00;99.90;;;;;;5015981;28;20912;-84
2022/02/01 13:01:50;;;;;;;0.30;0.20;;;3.90;99.90;;;;;;5016211;28;20439;-84
2022/02/01 13:04:23;;;;;;;0.30;0.20;;;4.00;99.90;;;;;;5016185;28;20432;-83
2022/02/01 13:06:52;;;;;;;0.30;0.30;;;4.00;99.90;;;;;;5015740;28;20464;-84
2022/02/01 13:15:07;;;;;;;0.30;0.20;;;3.90;99.90;;;;;;5015727;28;20777;-84
2022/02/01 13:17:43;;;;;;;0.30;0.30;;;3.80;99.90;;;;;;5015626;28;20471;-84
2022/02/01 13:20:19;;;;;;;0.30;0.20;;;3.90;99.90;;;;;;5015950;28;20485;-84
2022/02/01 13:22:55;;;;;;;0.30;0.20;;;3.80;99.90;;;;;;5015780;28;20436;-84
2022/02/01 13:25:34;;;;;;;0.30;0.20;;;3.70;99.90;;;;;;5015365;28;20978;-84
2022/02/01 13:28:03;;;;;;;0.30;0.30;;;3.70;99.90;;;;;;5015400;28;20798;-84
2022/02/01 13:30:30;;;;;;;0.30;0.20;;;3.80;99.90;;;;;;5015630;28;20432;-84
2022/02/01 13:33:07;;;;;;;0.30;0.20;;;3.80;99.90;;;;;;5015577;28;20530;-81
2022/02/01 13:35:34;;;;;;;0.30;0.27;;;3.80;99.90;;;;;;5015439;28;20467;-80
2022/02/01 13:38:10;;;;;;;0.30;0.30;;;3.90;99.90;;;;;;5015594;28;20464;-83
2022/02/01 13:40:39;;;;;;;0.30;0.30;;;3.90;99.90;;;;;;5015274;28;20490;-83
2022/02/01 13:43:13;;;;;;;0.63;0.50;;;3.80;99.90;;;;;;5015043;28;20444;-84
2022/02/01 13:45:40;;;;;;;0.70;0.30;;;3.80;99.90;;;;;;5015334;28;20467;-84
2022/02/01 13:48:11;;;;;;;0.30;0.30;;;3.60;99.90;;;;;;5015313;28;20462;-81
2022/02/01 13:50:39;;;;;;;0.87;0.87;;;3.50;99.90;;;;;;5014910;28;20439;-81
2022/02/01 13:53:09;;;;;;;0.30;0.20;;;3.50;99.90;;;;;;5015807;28;20465;-81
2022/02/01 13:55:39;;;;;;;0.30;0.30;;;3.40;99.90;;;;;;5015048;28;20475;-81
2022/02/01 13:58:08;;;;;;;0.30;0.30;;;3.40;99.90;;;;;;5015012;28;20471;-79
2022/02/01 14:00:38;;;;;;;0.30;0.20;;;3.40;99.90;;;;;;5015018;28;20436;-79
2022/02/01 14:03:18;;;;;;;0.30;0.30;;;3.30;99.90;;;;;;5014960;28;20440;-79
2022/02/01 14:06:00;;;;;;;0.30;0.30;;;3.30;99.90;;;;;;5015116;28;20942;-79
2022/02/01 14:08:36;;;;;;;0.30;0.30;;;3.30;99.90;;;;;;5014908;28;20463;-84
2022/02/01 14:11:33;;;;;;;0.30;0.20;;;3.30;99.90;;;;;;5014923;28;20471;-84
2022/02/01 14:14:33;;;;;;;0.40;0.40;;;3.20;99.90;;;;;;5014736;28;20851;-84
2022/02/01 14:27:59;;;;;;;0.30;0.30;;;3.20;99.90;;;;;;5014109;28;20436;-80
2022/02/01 14:33:28;;;;;;;0.40;0.40;;;3.20;99.90;;;;;;5014257;28;20897;-81
2022/02/01 14:35:57;;;;;;;0.30;0.20;;;3.10;99.90;;;;;;5014403;28;20575;-80
2022/02/01 14:38:39;;;;;;;0.30;0.20;;;3.00;99.90;;;;;;5013365;28;20967;-80
2022/02/01 14:44:03;;;;;;;0.30;0.30;;;3.00;99.90;;;;;;5014078;28;20422;-80
2022/02/01 14:46:30;;;;;;;0.30;0.20;;;2.90;99.90;;;;;;5014278;28;20829;-84